Time;durP1;ratioP1;P1;durP2;ratioP2;P2;SDS_P1;SDS_P2;PMS_P1;PMS_P2;Temp;Humidity;BMP_temperature;BMP_pressure;BME280_temperature;BME280_humidity;BME280_pressure;Samples;Min_cycle;Max_cycle;Signal;HPM_P1;HPM_P2
2023/06/09 00:07:27;;;;;;;;;;;19.70;76.70;;;;;;20911309;28;19931;-55
2023/06/09 00:17:27;;;;;;;;;;;19.60;76.90;;;;;;20915541;28;19931;-55
2023/06/09 00:27:29;;;;;;;;;;;19.50;77.20;;;;;;20923519;28;19925;-55
2023/06/09 00:37:30;;;;;;;;;;;19.50;77.10;;;;;;20922090;28;20020;-54
2023/06/09 00:47:31;;;;;;;;;;;19.40;77.50;;;;;;20923213;28;19925;-54
2023/06/09 00:57:33;;;;;;;;;;;19.40;77.80;;;;;;20923272;28;19925;-54
2023/06/09 01:07:38;;;;;;;;;;;19.30;78.20;;;;;;20922570;28;20378;-53
2023/06/09 01:17:42;;;;;;;;;;;19.20;78.60;;;;;;20921978;28;20007;-54
2023/06/09 01:27:44;;;;;;;;;;;19.20;78.40;;;;;;20920820;28;20421;-53
2023/06/09 01:37:45;;;;;;;;;;;19.20;78.00;;;;;;20920226;28;20393;-54
2023/06/09 01:47:45;;;;;;;;;;;19.00;78.40;;;;;;20919458;28;19948;-53
2023/06/09 01:57:51;;;;;;;;;;;19.00;78.10;;;;;;20918667;28;19928;-54
2023/06/09 02:07:53;;;;;;;;;;;19.00;77.60;;;;;;20917762;28;19924;-54
2023/06/09 02:17:54;;;;;;;;;;;19.00;77.50;;;;;;20915698;28;19925;-54
2023/06/09 02:27:54;;;;;;;;;;;18.90;77.00;;;;;;20914875;28;19975;-53
2023/06/09 02:37:57;;;;;;;;;;;19.00;75.90;;;;;;20914328;28;19929;-53
2023/06/09 02:47:58;;;;;;;;;;;19.00;74.00;;;;;;20915120;28;20356;-54
2023/06/09 02:57:58;;;;;;;;;;;18.90;72.20;;;;;;20914462;28;20074;-54
2023/06/09 03:07:59;;;;;;;;;;;18.90;71.40;;;;;;20914104;28;20019;-54
2023/06/09 03:18:00;;;;;;;;;;;18.90;69.30;;;;;;20912404;28;19925;-53
2023/06/09 03:28:01;;;;;;;;;;;18.90;68.70;;;;;;20909340;28;19925;-53
2023/06/09 03:38:01;;;;;;;;;;;18.80;69.40;;;;;;20909078;28;19925;-53
2023/06/09 03:48:04;;;;;;;;;;;18.80;69.30;;;;;;20907341;28;19925;-53
2023/06/09 03:58:05;;;;;;;;;;;18.70;68.50;;;;;;20920033;28;19928;-53
2023/06/09 04:08:08;;;;;;;;;;;18.60;68.20;;;;;;20922036;28;19948;-54
2023/06/09 04:18:08;;;;;;;;;;;18.50;68.30;;;;;;20921501;28;20269;-54
2023/06/09 04:28:09;;;;;;;;;;;18.40;68.60;;;;;;20851802;28;2042982;-53
2023/06/09 04:38:09;;;;;;;;;;;18.50;68.40;;;;;;20925008;28;20003;-54
2023/06/09 04:48:12;;;;;;;;;;;18.50;68.20;;;;;;20923974;28;19932;-54
2023/06/09 04:58:15;;;;;;;;;;;18.40;68.60;;;;;;20923574;28;19924;-54
2023/06/09 05:08:15;;;;;;;;;;;18.30;68.70;;;;;;20921227;28;19947;-54
2023/06/09 05:18:17;;;;;;;;;;;18.20;69.20;;;;;;20920996;28;19929;-53
2023/06/09 05:28:18;;;;;;;;;;;18.00;69.80;;;;;;20921800;28;20403;-54
2023/06/09 05:38:19;;;;;;;;;;;18.10;69.90;;;;;;20920490;28;19933;-54
2023/06/09 05:48:20;;;;;;;;;;;18.10;70.20;;;;;;20919213;28;20399;-54
2023/06/09 05:58:21;;;;;;;;;;;18.30;69.80;;;;;;20916587;28;20148;-55
2023/06/09 06:08:21;;;;;;;;;;;18.40;70.10;;;;;;20915662;28;20420;-54
2023/06/09 06:18:22;;;;;;;;;;;18.60;70.40;;;;;;20914436;28;19936;-55
2023/06/09 06:28:22;;;;;;;;;;;18.60;70.90;;;;;;20914726;28;20345;-54
2023/06/09 06:38:23;;;;;;;;;;;18.50;71.30;;;;;;20914964;28;19928;-54
2023/06/09 06:48:24;;;;;;;;;;;;;;;;;;20914473;28;19964;-55
2023/06/09 06:58:27;;;;;;;;;;;18.90;70.50;;;;;;20913283;28;19925;-57
2023/06/09 07:08:28;;;;;;;;;;;19.90;66.60;;;;;;20912930;28;19925;-56
2023/06/09 07:18:29;;;;;;;;;;;20.60;63.20;;;;;;20912996;28;19978;-56
2023/06/09 07:28:29;;;;;;;;;;;20.80;61.40;;;;;;20908308;28;19925;-57
2023/06/09 07:38:30;;;;;;;;;;;21.50;59.20;;;;;;20844310;28;19925;-55
2023/06/09 07:48:31;;;;;;;;;;;21.60;58.00;;;;;;20846037;28;20011;-57
2023/06/09 07:58:31;;;;;;;;;;;21.40;57.90;;;;;;20844067;28;19925;-56
2023/06/09 08:08:32;;;;;;;;;;;22.00;56.60;;;;;;20844328;28;19932;-55
2023/06/09 08:18:33;;;;;;;;;;;22.70;54.90;;;;;;20842801;28;19931;-55
2023/06/09 08:28:33;;;;;;;;;;;23.20;53.60;;;;;;20842966;28;19931;-57
2023/06/09 08:38:35;;;;;;;;;;;23.10;52.20;;;;;;20842095;28;20009;-56
2023/06/09 08:48:41;;;;;;;;;;;22.70;54.00;;;;;;20841821;28;19964;-54
2023/06/09 08:58:42;;;;;;;;;;;22.60;53.90;;;;;;20839443;28;20054;-56
2023/06/09 09:08:43;;;;;;;;;;;22.70;53.90;;;;;;20839549;28;19976;-55
2023/06/09 09:18:46;;;;;;;;;;;22.80;52.90;;;;;;20838359;28;20382;-56
2023/06/09 09:28:47;;;;;;;;;;;23.30;51.70;;;;;;20836554;28;19971;-55
2023/06/09 09:38:48;;;;;;;;;;;22.70;52.20;;;;;;20837414;28;19925;-56
2023/06/09 09:48:48;;;;;;;;;;;22.70;53.60;;;;;;20834485;28;19932;-56
2023/06/09 09:58:53;;;;;;;;;;;22.80;56.00;;;;;;20856092;28;19932;-55
2023/06/09 10:08:55;;;;;;;;;;;22.60;54.10;;;;;;20848346;28;19936;-54
2023/06/09 10:18:56;;;;;;;;;;;22.70;56.30;;;;;;20836376;28;19928;-54
2023/06/09 10:28:57;;;;;;;;;;;22.70;52.70;;;;;;20915208;28;19925;-55
2023/06/09 10:38:57;;;;;;;;;;;23.10;51.80;;;;;;20912228;28;19925;-52
2023/06/09 10:48:58;;;;;;;;;;;23.70;51.80;;;;;;20925813;28;20350;-52
2023/06/09 10:58:59;;;;;;;;;;;24.20;47.30;;;;;;20926401;28;20385;-56
2023/06/09 11:09:09;;;;;;;;;;;23.70;50.70;;;;;;20910807;28;20362;-57
2023/06/09 11:19:28;;;;;;;;;;;23.30;51.10;;;;;;20911131;28;20369;-56
2023/06/09 11:29:28;;;;;;;;;;;23.60;50.40;;;;;;20901657;28;19976;-55
2023/06/09 11:39:34;;;;;;;;;;;23.60;48.80;;;;;;20910389;28;19925;-56
2023/06/09 11:49:35;;;;;;;;;;;24.00;49.20;;;;;;20911149;28;19932;-56
2023/06/09 11:59:35;;;;;;;;;;;24.40;45.90;;;;;;20910859;28;19925;-58
2023/06/09 12:09:36;;;;;;;;;;;24.60;48.10;;;;;;20909014;28;19955;-55
2023/06/09 12:19:36;;;;;;;;;;;24.50;46.90;;;;;;20924932;28;19932;-55
2023/06/09 12:29:37;;;;;;;;;;;24.60;46.00;;;;;;20922568;28;19932;-56
2023/06/09 12:39:38;;;;;;;;;;;24.40;48.00;;;;;;20922678;28;20362;-55
2023/06/09 12:49:42;;;;;;;;;;;24.40;46.20;;;;;;20921189;28;19925;-55
2023/06/09 12:59:42;;;;;;;;;;;24.60;46.60;;;;;;20921338;28;20004;-55
2023/06/09 13:09:43;;;;;;;;;;;24.90;45.30;;;;;;20920737;28;19975;-56
2023/06/09 13:19:44;;;;;;;;;;;25.10;44.60;;;;;;20918925;28;19986;-55
2023/06/09 13:29:44;;;;;;;;;;;25.20;44.80;;;;;;20915188;28;20321;-55
2023/06/09 13:39:45;;;;;;;;;;;25.10;44.10;;;;;;20918261;28;20333;-55
2023/06/09 13:49:45;;;;;;;;;;;25.30;42.30;;;;;;20917738;28;19929;-56
2023/06/09 13:59:46;;;;;;;;;;;25.10;44.40;;;;;;20918060;28;20008;-54
2023/06/09 14:09:47;;;;;;;;;;;25.30;43.10;;;;;;20915944;28;19932;-56
2023/06/09 14:19:48;;;;;;;;;;;25.30;43.80;;;;;;20915201;28;19925;-55
2023/06/09 14:29:48;;;;;;;;;;;25.40;43.80;;;;;;20914409;28;20416;-56
2023/06/09 14:39:49;;;;;;;;;;;25.50;43.50;;;;;;20914732;28;19924;-55
2023/06/09 14:49:50;;;;;;;;;;;25.70;42.80;;;;;;20914119;28;19925;-56
2023/06/09 14:59:50;;;;;;;;;;;25.80;43.10;;;;;;20913667;28;19964;-58
2023/06/09 15:09:51;;;;;;;;;;;25.90;43.60;;;;;;20913744;28;19924;-56
2023/06/09 15:19:51;;;;;;;;;;;25.80;43.60;;;;;;20912989;28;20026;-55
2023/06/09 15:29:53;;;;;;;;;;;25.70;44.00;;;;;;20909884;28;19924;-55
2023/06/09 15:39:54;;;;;;;;;;;25.60;44.00;;;;;;20912053;28;19964;-60
2023/06/09 15:49:54;;;;;;;;;;;25.60;43.60;;;;;;20905561;28;19960;-59
2023/06/09 15:59:55;;;;;;;;;;;25.70;44.00;;;;;;20905929;28;20401;-56
2023/06/09 16:09:56;;;;;;;;;;;25.80;43.10;;;;;;20906280;28;20015;-56
2023/06/09 16:19:56;;;;;;;;;;;25.60;44.20;;;;;;20918307;28;19935;-56
2023/06/09 16:29:58;;;;;;;;;;;25.60;44.40;;;;;;20916388;28;19925;-54
2023/06/09 16:39:58;;;;;;;;;;;25.60;44.70;;;;;;20888080;28;20016;-56
2023/06/09 16:49:59;;;;;;;;;;;25.10;45.50;;;;;;20885067;28;20402;-59
2023/06/09 17:00:00;;;;;;;;;;;25.60;45.20;;;;;;20880195;28;19970;-56
2023/06/09 17:10:00;;;;;;;;;;;25.40;44.60;;;;;;20884320;28;19960;-56
2023/06/09 17:20:01;;;;;;;;;;;25.60;44.40;;;;;;20888907;28;20526;-57
2023/06/09 17:30:03;;;;;;;;;;;25.50;45.10;;;;;;20916952;28;19924;-57
2023/06/09 17:40:07;;;;;;;;;;;25.60;44.80;;;;;;20917713;28;19925;-58
2023/06/09 17:50:08;;;;;;;;;;;25.60;44.50;;;;;;20914762;28;19925;-57
2023/06/09 18:00:10;;;;;;;;;;;25.20;45.60;;;;;;20915135;28;20361;-58
2023/06/09 18:10:11;;;;;;;;;;;25.10;46.60;;;;;;20912290;28;19928;-57
2023/06/09 18:20:12;;;;;;;;;;;;;;;;;;20896741;28;19924;-57
2023/06/09 18:30:13;;;;;;;;;;;25.10;46.80;;;;;;20914602;28;20258;-54
2023/06/09 18:40:14;;;;;;;;;;;25.00;47.20;;;;;;20914309;28;19966;-58
2023/06/09 18:50:15;;;;;;;;;;;24.90;46.70;;;;;;20910932;28;20078;-56
2023/06/09 19:00:15;;;;;;;;;;;24.60;47.80;;;;;;20907097;28;20290;-56
2023/06/09 19:10:16;;;;;;;;;;;24.60;48.20;;;;;;20900218;28;19932;-58
2023/06/09 19:20:17;;;;;;;;;;;24.60;49.40;;;;;;20909938;28;19931;-57
2023/06/09 19:30:17;;;;;;;;;;;24.30;52.50;;;;;;20929568;28;19970;-55
2023/06/09 19:40:18;;;;;;;;;;;24.10;53.40;;;;;;20917723;28;19925;-57
2023/06/09 19:50:19;;;;;;;;;;;24.20;53.70;;;;;;20917692;28;20428;-55
2023/06/09 20:00:20;;;;;;;;;;;24.00;54.10;;;;;;20917890;28;20404;-55
2023/06/09 20:10:20;;;;;;;;;;;23.70;53.90;;;;;;20910859;28;20019;-55
2023/06/09 20:20:22;;;;;;;;;;;23.90;53.30;;;;;;20923312;28;19925;-54
2023/06/09 20:30:22;;;;;;;;;;;23.70;53.00;;;;;;20916836;28;19928;-56
2023/06/09 20:40:23;;;;;;;;;;;23.60;53.30;;;;;;20917503;28;20298;-54
2023/06/09 20:50:26;;;;;;;;;;;23.40;53.80;;;;;;20922344;28;19924;-54
2023/06/09 21:00:26;;;;;;;;;;;23.30;54.20;;;;;;20922298;28;19975;-55
2023/06/09 21:10:27;;;;;;;;;;;23.20;54.80;;;;;;20921754;28;20329;-54
2023/06/09 21:20:32;;;;;;;;;;;23.00;55.80;;;;;;20920715;28;19948;-56
2023/06/09 21:30:33;;;;;;;;;;;23.00;56.40;;;;;;20919716;28;20401;-54
2023/06/09 21:40:33;;;;;;;;;;;23.00;56.20;;;;;;20920109;28;19979;-54
2023/06/09 21:50:34;;;;;;;;;;;22.90;56.60;;;;;;20917160;28;19989;-54
2023/06/09 22:00:35;;;;;;;;;;;22.90;57.20;;;;;;20917328;28;19948;-55
2023/06/09 22:10:36;;;;;;;;;;;22.70;57.90;;;;;;20915013;28;19925;-55
2023/06/09 22:20:37;;;;;;;;;;;22.60;58.70;;;;;;20915123;28;19932;-55
2023/06/09 22:30:38;;;;;;;;;;;22.60;58.70;;;;;;20915602;28;19925;-53
2023/06/09 22:40:38;;;;;;;;;;;22.60;58.90;;;;;;20916003;28;19971;-53
2023/06/09 22:50:39;;;;;;;;;;;22.30;60.30;;;;;;20914014;28;19924;-55
2023/06/09 23:00:40;;;;;;;;;;;22.10;61.10;;;;;;20914725;28;20298;-55
2023/06/09 23:10:40;;;;;;;;;;;22.00;61.50;;;;;;20913201;28;19925;-55
2023/06/09 23:20:41;;;;;;;;;;;21.90;62.40;;;;;;20912566;28;19932;-55
2023/06/09 23:30:42;;;;;;;;;;;21.80;63.50;;;;;;20912206;28;19948;-54
2023/06/09 23:40:42;;;;;;;;;;;21.50;64.30;;;;;;20911828;28;19925;-55
2023/06/09 23:50:43;;;;;;;;;;;21.50;64.30;;;;;;20912847;28;19925;-55
